sensor_id;sensor_type;location;lat;lon;timestamp;temperature;humidity
45323;DHT22;31382;50.200;8.674;2022-07-06T00:00:17;18.10;90.40
45323;DHT22;31382;50.200;8.674;2022-07-06T00:05:19;18.00;90.90
45323;DHT22;31382;50.200;8.674;2022-07-06T00:10:20;17.90;91.40
45323;DHT22;31382;50.200;8.674;2022-07-06T00:15:22;17.90;91.80
45323;DHT22;31382;50.200;8.674;2022-07-06T00:20:24;17.90;92.20
45323;DHT22;31382;50.200;8.674;2022-07-06T00:25:26;17.90;92.50
45323;DHT22;31382;50.200;8.674;2022-07-06T00:30:28;18.00;92.80
45323;DHT22;31382;50.200;8.674;2022-07-06T00:35:30;18.00;93.20
45323;DHT22;31382;50.200;8.674;2022-07-06T00:40:31;17.90;93.50
45323;DHT22;31382;50.200;8.674;2022-07-06T00:45:33;17.90;93.90
45323;DHT22;31382;50.200;8.674;2022-07-06T00:50:35;17.90;94.30
45323;DHT22;31382;50.200;8.674;2022-07-06T00:55:38;17.90;94.70
45323;DHT22;31382;50.200;8.674;2022-07-06T01:00:43;17.90;95.10
45323;DHT22;31382;50.200;8.674;2022-07-06T01:05:46;17.80;95.50
45323;DHT22;31382;50.200;8.674;2022-07-06T01:10:48;17.80;96.00
45323;DHT22;31382;50.200;8.674;2022-07-06T01:15:50;17.70;96.40
45323;DHT22;31382;50.200;8.674;2022-07-06T01:21:06;17.60;97.00
45323;DHT22;31382;50.200;8.674;2022-07-06T01:26:09;17.50;97.40
45323;DHT22;31382;50.200;8.674;2022-07-06T01:31:20;17.40;97.90
45323;DHT22;31382;50.200;8.674;2022-07-06T01:36:23;17.40;98.40
45323;DHT22;31382;50.200;8.674;2022-07-06T01:41:25;17.30;98.80
45323;DHT22;31382;50.200;8.674;2022-07-06T01:46:27;17.20;99.40
45323;DHT22;31382;50.200;8.674;2022-07-06T01:51:29;17.10;99.80
45323;DHT22;31382;50.200;8.674;2022-07-06T01:56:31;17.10;99.90
45323;DHT22;31382;50.200;8.674;2022-07-06T02:01:33;17.00;99.90
45323;DHT22;31382;50.200;8.674;2022-07-06T02:06:35;16.90;99.90
45323;DHT22;31382;50.200;8.674;2022-07-06T02:11:36;16.80;99.90
45323;DHT22;31382;50.200;8.674;2022-07-06T02:16:38;16.70;99.90
45323;DHT22;31382;50.200;8.674;2022-07-06T02:21:40;16.60;99.90
45323;DHT22;31382;50.200;8.674;2022-07-06T02:26:42;16.50;99.90
45323;DHT22;31382;50.200;8.674;2022-07-06T02:31:44;16.40;99.90
45323;DHT22;31382;50.200;8.674;2022-07-06T02:36:45;16.30;99.90
45323;DHT22;31382;50.200;8.674;2022-07-06T02:41:47;16.30;99.90
45323;DHT22;31382;50.200;8.674;2022-07-06T02:46:49;16.20;99.90
45323;DHT22;31382;50.200;8.674;2022-07-06T02:51:51;16.20;99.90
45323;DHT22;31382;50.200;8.674;2022-07-06T02:56:52;16.10;99.90
45323;DHT22;31382;50.200;8.674;2022-07-06T03:01:54;16.00;99.90
45323;DHT22;31382;50.200;8.674;2022-07-06T03:06:56;15.90;99.90
45323;DHT22;31382;50.200;8.674;2022-07-06T03:11:58;15.80;99.90
45323;DHT22;31382;50.200;8.674;2022-07-06T03:17:00;15.80;99.90
45323;DHT22;31382;50.200;8.674;2022-07-06T03:22:02;15.80;99.90
45323;DHT22;31382;50.200;8.674;2022-07-06T03:27:04;15.70;99.90
45323;DHT22;31382;50.200;8.674;2022-07-06T03:32:06;15.70;99.90
45323;DHT22;31382;50.200;8.674;2022-07-06T03:37:08;15.60;99.90
45323;DHT22;31382;50.200;8.674;2022-07-06T03:42:10;15.60;99.90
45323;DHT22;31382;50.200;8.674;2022-07-06T03:47:12;15.50;99.90
45323;DHT22;31382;50.200;8.674;2022-07-06T03:52:13;15.50;99.90
45323;DHT22;31382;50.200;8.674;2022-07-06T03:57:15;15.50;99.90
45323;DHT22;31382;50.200;8.674;2022-07-06T04:02:18;15.40;99.90
45323;DHT22;31382;50.200;8.674;2022-07-06T04:07:20;15.40;99.90
45323;DHT22;31382;50.200;8.674;2022-07-06T04:12:22;15.40;99.90
45323;DHT22;31382;50.200;8.674;2022-07-06T04:17:27;15.30;99.90
45323;DHT22;31382;50.200;8.674;2022-07-06T04:22:47;15.40;99.90
45323;DHT22;31382;50.200;8.674;2022-07-06T04:27:49;15.40;99.90
45323;DHT22;31382;50.200;8.674;2022-07-06T04:32:51;15.40;99.90
45323;DHT22;31382;50.200;8.674;2022-07-06T04:37:53;15.40;99.90
45323;DHT22;31382;50.200;8.674;2022-07-06T04:42:55;15.40;99.90
45323;DHT22;31382;50.200;8.674;2022-07-06T04:47:57;15.50;99.90
45323;DHT22;31382;50.200;8.674;2022-07-06T04:52:59;15.50;99.90
45323;DHT22;31382;50.200;8.674;2022-07-06T04:58:01;15.50;99.90
45323;DHT22;31382;50.200;8.674;2022-07-06T05:03:03;15.40;99.90
45323;DHT22;31382;50.200;8.674;2022-07-06T05:08:06;15.40;99.90
45323;DHT22;31382;50.200;8.674;2022-07-06T05:13:09;15.50;99.90
45323;DHT22;31382;50.200;8.674;2022-07-06T05:18:10;15.50;99.90
45323;DHT22;31382;50.200;8.674;2022-07-06T05:23:13;15.70;99.90
45323;DHT22;31382;50.200;8.674;2022-07-06T05:28:16;15.90;99.90
45323;DHT22;31382;50.200;8.674;2022-07-06T05:33:18;15.90;99.90
45323;DHT22;31382;50.200;8.674;2022-07-06T05:38:20;16.00;99.90
45323;DHT22;31382;50.200;8.674;2022-07-06T05:43:22;16.30;99.90
45323;DHT22;31382;50.200;8.674;2022-07-06T05:48:24;16.40;99.90
45323;DHT22;31382;50.200;8.674;2022-07-06T05:53:45;16.20;99.90
45323;DHT22;31382;50.200;8.674;2022-07-06T05:58:47;16.60;99.90
45323;DHT22;31382;50.200;8.674;2022-07-06T06:03:49;16.70;99.90
45323;DHT22;31382;50.200;8.674;2022-07-06T06:08:51;16.70;99.90
45323;DHT22;31382;50.200;8.674;2022-07-06T06:13:52;16.70;99.90
45323;DHT22;31382;50.200;8.674;2022-07-06T06:18:54;16.90;99.90
45323;DHT22;31382;50.200;8.674;2022-07-06T06:23:56;17.10;99.90
45323;DHT22;31382;50.200;8.674;2022-07-06T06:28:58;17.20;99.90
45323;DHT22;31382;50.200;8.674;2022-07-06T06:34:00;17.30;99.90
45323;DHT22;31382;50.200;8.674;2022-07-06T06:39:01;17.20;99.90
45323;DHT22;31382;50.200;8.674;2022-07-06T06:44:04;17.10;99.90
45323;DHT22;31382;50.200;8.674;2022-07-06T06:49:05;17.00;99.90
45323;DHT22;31382;50.200;8.674;2022-07-06T06:54:07;17.20;99.90
45323;DHT22;31382;50.200;8.674;2022-07-06T06:59:09;17.30;99.90
45323;DHT22;31382;50.200;8.674;2022-07-06T07:04:19;17.50;99.90
45323;DHT22;31382;50.200;8.674;2022-07-06T07:09:21;17.80;99.90
45323;DHT22;31382;50.200;8.674;2022-07-06T07:14:22;17.80;99.90
45323;DHT22;31382;50.200;8.674;2022-07-06T07:19:24;17.90;99.90
45323;DHT22;31382;50.200;8.674;2022-07-06T07:24:26;18.10;99.90
45323;DHT22;31382;50.200;8.674;2022-07-06T07:29:28;18.20;99.90
45323;DHT22;31382;50.200;8.674;2022-07-06T07:34:30;18.40;99.90
45323;DHT22;31382;50.200;8.674;2022-07-06T07:39:32;18.50;99.60
45323;DHT22;31382;50.200;8.674;2022-07-06T07:44:34;18.60;99.50
45323;DHT22;31382;50.200;8.674;2022-07-06T07:49:35;18.60;98.90
45323;DHT22;31382;50.200;8.674;2022-07-06T07:54:37;18.60;98.00
45323;DHT22;31382;50.200;8.674;2022-07-06T07:59:47;18.50;97.80
45323;DHT22;31382;50.200;8.674;2022-07-06T08:04:54;18.40;97.60
45323;DHT22;31382;50.200;8.674;2022-07-06T08:10:02;18.50;98.30
45323;DHT22;31382;50.200;8.674;2022-07-06T08:15:05;18.30;97.90
45323;DHT22;31382;50.200;8.674;2022-07-06T08:20:19;18.40;97.40
45323;DHT22;31382;50.200;8.674;2022-07-06T08:25:25;18.60;97.60
45323;DHT22;31382;50.200;8.674;2022-07-06T08:30:28;18.60;97.00
45323;DHT22;31382;50.200;8.674;2022-07-06T08:35:37;18.70;96.90
45323;DHT22;31382;50.200;8.674;2022-07-06T08:40:43;18.90;95.70
45323;DHT22;31382;50.200;8.674;2022-07-06T08:45:49;18.80;95.70
45323;DHT22;31382;50.200;8.674;2022-07-06T08:50:53;18.90;95.40
45323;DHT22;31382;50.200;8.674;2022-07-06T08:55:56;19.40;94.50
45323;DHT22;31382;50.200;8.674;2022-07-06T09:00:57;19.30;94.00
45323;DHT22;31382;50.200;8.674;2022-07-06T09:06:04;19.40;93.90
45323;DHT22;31382;50.200;8.674;2022-07-06T09:11:08;19.30;93.30
45323;DHT22;31382;50.200;8.674;2022-07-06T09:16:11;19.50;92.70
45323;DHT22;31382;50.200;8.674;2022-07-06T09:21:34;19.80;92.50
45323;DHT22;31382;50.200;8.674;2022-07-06T09:26:40;20.10;91.60
45323;DHT22;31382;50.200;8.674;2022-07-06T09:31:56;20.20;91.50
45323;DHT22;31382;50.200;8.674;2022-07-06T09:37:02;20.00;90.80
45323;DHT22;31382;50.200;8.674;2022-07-06T09:42:05;20.00;90.50
45323;DHT22;31382;50.200;8.674;2022-07-06T09:47:10;19.90;90.10
45323;DHT22;31382;50.200;8.674;2022-07-06T09:52:13;20.00;89.60
45323;DHT22;31382;50.200;8.674;2022-07-06T09:57:15;20.30;89.10
45323;DHT22;31382;50.200;8.674;2022-07-06T10:02:19;20.30;87.40
45323;DHT22;31382;50.200;8.674;2022-07-06T10:07:24;20.70;88.80
45323;DHT22;31382;50.200;8.674;2022-07-06T10:12:26;20.60;86.10
45323;DHT22;31382;50.200;8.674;2022-07-06T10:17:29;20.60;83.40
45323;DHT22;31382;50.200;8.674;2022-07-06T10:22:31;20.50;83.20
45323;DHT22;31382;50.200;8.674;2022-07-06T10:27:34;20.90;83.00
45323;DHT22;31382;50.200;8.674;2022-07-06T10:32:39;21.00;80.30
45323;DHT22;31382;50.200;8.674;2022-07-06T10:37:41;21.30;81.90
45323;DHT22;31382;50.200;8.674;2022-07-06T10:42:47;21.50;76.00
45323;DHT22;31382;50.200;8.674;2022-07-06T10:53:14;21.00;77.00
45323;DHT22;31382;50.200;8.674;2022-07-06T10:58:47;21.40;76.50
45323;DHT22;31382;50.200;8.674;2022-07-06T11:04:04;21.40;75.00
45323;DHT22;31382;50.200;8.674;2022-07-06T11:09:08;21.60;72.40
45323;DHT22;31382;50.200;8.674;2022-07-06T11:14:12;21.80;71.20
45323;DHT22;31382;50.200;8.674;2022-07-06T11:19:16;22.00;71.50
45323;DHT22;31382;50.200;8.674;2022-07-06T11:24:27;22.00;72.80
45323;DHT22;31382;50.200;8.674;2022-07-06T11:29:32;21.90;70.40
45323;DHT22;31382;50.200;8.674;2022-07-06T11:34:39;22.20;68.40
45323;DHT22;31382;50.200;8.674;2022-07-06T11:39:43;21.90;67.90
45323;DHT22;31382;50.200;8.674;2022-07-06T11:44:46;22.60;68.60
45323;DHT22;31382;50.200;8.674;2022-07-06T11:49:50;22.30;67.60
45323;DHT22;31382;50.200;8.674;2022-07-06T11:54:57;22.70;65.40
45323;DHT22;31382;50.200;8.674;2022-07-06T12:00:00;23.00;66.10
45323;DHT22;31382;50.200;8.674;2022-07-06T12:05:02;23.50;65.90
45323;DHT22;31382;50.200;8.674;2022-07-06T12:10:05;23.80;62.10
45323;DHT22;31382;50.200;8.674;2022-07-06T12:15:07;24.50;63.50
45323;DHT22;31382;50.200;8.674;2022-07-06T12:20:10;23.60;61.30
45323;DHT22;31382;50.200;8.674;2022-07-06T12:25:12;24.20;63.70
45323;DHT22;31382;50.200;8.674;2022-07-06T12:30:30;24.60;62.20
45323;DHT22;31382;50.200;8.674;2022-07-06T12:35:32;23.80;62.30
45323;DHT22;31382;50.200;8.674;2022-07-06T12:40:38;24.00;62.00
45323;DHT22;31382;50.200;8.674;2022-07-06T12:45:40;23.60;62.00
45323;DHT22;31382;50.200;8.674;2022-07-06T12:50:42;23.90;61.50
45323;DHT22;31382;50.200;8.674;2022-07-06T12:55:44;23.50;60.20
45323;DHT22;31382;50.200;8.674;2022-07-06T13:00:46;23.60;61.50
45323;DHT22;31382;50.200;8.674;2022-07-06T13:05:51;24.40;60.60
45323;DHT22;31382;50.200;8.674;2022-07-06T13:10:53;24.20;59.10
45323;DHT22;31382;50.200;8.674;2022-07-06T13:16:01;24.00;61.30
45323;DHT22;31382;50.200;8.674;2022-07-06T13:21:16;24.00;63.40
45323;DHT22;31382;50.200;8.674;2022-07-06T13:26:18;23.70;63.20
45323;DHT22;31382;50.200;8.674;2022-07-06T13:31:22;23.40;63.50
45323;DHT22;31382;50.200;8.674;2022-07-06T13:36:28;23.30;63.30
45323;DHT22;31382;50.200;8.674;2022-07-06T13:41:35;22.70;64.00
45323;DHT22;31382;50.200;8.674;2022-07-06T13:46:40;23.10;64.10
45323;DHT22;31382;50.200;8.674;2022-07-06T13:51:43;22.60;65.30
45323;DHT22;31382;50.200;8.674;2022-07-06T13:56:45;22.90;65.20
45323;DHT22;31382;50.200;8.674;2022-07-06T14:01:57;22.50;66.40
45323;DHT22;31382;50.200;8.674;2022-07-06T14:07:00;22.70;66.60
45323;DHT22;31382;50.200;8.674;2022-07-06T14:12:03;22.70;67.10
45323;DHT22;31382;50.200;8.674;2022-07-06T14:17:06;22.80;66.80
45323;DHT22;31382;50.200;8.674;2022-07-06T14:22:08;23.00;65.70
45323;DHT22;31382;50.200;8.674;2022-07-06T14:27:10;23.50;64.10
45323;DHT22;31382;50.200;8.674;2022-07-06T14:32:12;23.20;64.70
45323;DHT22;31382;50.200;8.674;2022-07-06T14:37:14;23.30;64.30
45323;DHT22;31382;50.200;8.674;2022-07-06T14:42:21;23.20;63.20
45323;DHT22;31382;50.200;8.674;2022-07-06T14:47:23;22.90;63.10
45323;DHT22;31382;50.200;8.674;2022-07-06T14:52:25;22.60;64.00
45323;DHT22;31382;50.200;8.674;2022-07-06T14:57:27;22.70;64.70
45323;DHT22;31382;50.200;8.674;2022-07-06T15:02:29;22.60;64.60
45323;DHT22;31382;50.200;8.674;2022-07-06T15:07:35;22.60;64.10
45323;DHT22;31382;50.200;8.674;2022-07-06T15:12:57;22.30;64.50
45323;DHT22;31382;50.200;8.674;2022-07-06T15:18:05;22.50;65.00
45323;DHT22;31382;50.200;8.674;2022-07-06T15:23:09;22.20;65.30
45323;DHT22;31382;50.200;8.674;2022-07-06T15:28:11;22.10;65.90
45323;DHT22;31382;50.200;8.674;2022-07-06T15:33:15;22.10;66.90
45323;DHT22;31382;50.200;8.674;2022-07-06T15:38:18;22.50;66.10
45323;DHT22;31382;50.200;8.674;2022-07-06T15:43:25;22.50;64.90
45323;DHT22;31382;50.200;8.674;2022-07-06T15:48:30;22.60;64.90
45323;DHT22;31382;50.200;8.674;2022-07-06T15:53:39;22.60;64.80
45323;DHT22;31382;50.200;8.674;2022-07-06T15:58:45;22.60;66.40
45323;DHT22;31382;50.200;8.674;2022-07-06T16:03:47;22.60;66.00
45323;DHT22;31382;50.200;8.674;2022-07-06T16:08:49;23.10;65.10
45323;DHT22;31382;50.200;8.674;2022-07-06T16:13:50;23.40;65.00
45323;DHT22;31382;50.200;8.674;2022-07-06T16:18:57;23.30;65.00
45323;DHT22;31382;50.200;8.674;2022-07-06T16:24:02;23.20;64.10
45323;DHT22;31382;50.200;8.674;2022-07-06T16:29:04;23.40;64.20
45323;DHT22;31382;50.200;8.674;2022-07-06T16:34:06;23.10;64.30
45323;DHT22;31382;50.200;8.674;2022-07-06T16:39:08;23.10;64.40
45323;DHT22;31382;50.200;8.674;2022-07-06T16:44:10;23.20;64.10
45323;DHT22;31382;50.200;8.674;2022-07-06T16:49:12;22.70;64.70
45323;DHT22;31382;50.200;8.674;2022-07-06T16:54:14;22.90;64.40
45323;DHT22;31382;50.200;8.674;2022-07-06T16:59:16;23.80;63.90
45323;DHT22;31382;50.200;8.674;2022-07-06T17:04:17;24.10;62.90
45323;DHT22;31382;50.200;8.674;2022-07-06T17:09:22;24.00;62.40
45323;DHT22;31382;50.200;8.674;2022-07-06T17:14:24;23.90;62.40
45323;DHT22;31382;50.200;8.674;2022-07-06T17:19:26;24.10;62.40
45323;DHT22;31382;50.200;8.674;2022-07-06T17:24:34;24.80;61.10
45323;DHT22;31382;50.200;8.674;2022-07-06T17:29:48;23.90;61.80
45323;DHT22;31382;50.200;8.674;2022-07-06T17:34:50;24.30;61.50
45323;DHT22;31382;50.200;8.674;2022-07-06T17:39:54;24.00;62.40
45323;DHT22;31382;50.200;8.674;2022-07-06T17:44:56;24.30;62.60
45323;DHT22;31382;50.200;8.674;2022-07-06T17:50:01;24.20;63.20
45323;DHT22;31382;50.200;8.674;2022-07-06T17:55:03;24.60;62.80
45323;DHT22;31382;50.200;8.674;2022-07-06T18:00:06;24.30;62.30
45323;DHT22;31382;50.200;8.674;2022-07-06T18:05:12;24.40;61.50
45323;DHT22;31382;50.200;8.674;2022-07-06T18:10:14;24.20;62.00
45323;DHT22;31382;50.200;8.674;2022-07-06T18:15:16;24.00;62.10
45323;DHT22;31382;50.200;8.674;2022-07-06T18:20:18;24.00;62.30
45323;DHT22;31382;50.200;8.674;2022-07-06T18:25:20;22.90;64.00
45323;DHT22;31382;50.200;8.674;2022-07-06T18:30:22;22.70;65.00
45323;DHT22;31382;50.200;8.674;2022-07-06T18:35:25;22.30;66.20
45323;DHT22;31382;50.200;8.674;2022-07-06T18:40:31;21.70;67.50
45323;DHT22;31382;50.200;8.674;2022-07-06T18:45:33;21.20;68.50
45323;DHT22;31382;50.200;8.674;2022-07-06T18:50:35;21.20;69.40
45323;DHT22;31382;50.200;8.674;2022-07-06T18:55:37;20.90;70.10
45323;DHT22;31382;50.200;8.674;2022-07-06T19:00:39;20.70;71.00
45323;DHT22;31382;50.200;8.674;2022-07-06T19:05:44;20.20;71.60
45323;DHT22;31382;50.200;8.674;2022-07-06T19:10:46;20.00;72.60
45323;DHT22;31382;50.200;8.674;2022-07-06T19:15:48;19.80;74.30
45323;DHT22;31382;50.200;8.674;2022-07-06T19:20:50;19.60;74.40
45323;DHT22;31382;50.200;8.674;2022-07-06T19:25:52;19.30;75.20
45323;DHT22;31382;50.200;8.674;2022-07-06T19:30:54;19.30;76.10
45323;DHT22;31382;50.200;8.674;2022-07-06T19:35:57;19.00;77.10
45323;DHT22;31382;50.200;8.674;2022-07-06T19:41:02;18.80;77.70
45323;DHT22;31382;50.200;8.674;2022-07-06T19:46:04;18.60;78.50
45323;DHT22;31382;50.200;8.674;2022-07-06T19:51:07;18.50;79.10
45323;DHT22;31382;50.200;8.674;2022-07-06T19:56:09;18.40;79.80
45323;DHT22;31382;50.200;8.674;2022-07-06T20:01:11;18.30;80.20
45323;DHT22;31382;50.200;8.674;2022-07-06T20:06:13;18.20;80.90
45323;DHT22;31382;50.200;8.674;2022-07-06T20:11:16;18.10;81.70
45323;DHT22;31382;50.200;8.674;2022-07-06T20:16:18;17.90;82.70
45323;DHT22;31382;50.200;8.674;2022-07-06T20:21:21;17.80;83.60
45323;DHT22;31382;50.200;8.674;2022-07-06T20:26:23;17.70;84.60
45323;DHT22;31382;50.200;8.674;2022-07-06T20:31:25;17.60;85.40
45323;DHT22;31382;50.200;8.674;2022-07-06T20:36:27;17.50;86.00
45323;DHT22;31382;50.200;8.674;2022-07-06T20:41:29;17.50;86.60
45323;DHT22;31382;50.200;8.674;2022-07-06T20:46:31;17.40;87.40
45323;DHT22;31382;50.200;8.674;2022-07-06T20:51:33;17.30;88.20
45323;DHT22;31382;50.200;8.674;2022-07-06T20:56:35;17.30;88.70
45323;DHT22;31382;50.200;8.674;2022-07-06T21:01:38;17.30;89.40
45323;DHT22;31382;50.200;8.674;2022-07-06T21:06:40;17.30;90.00
45323;DHT22;31382;50.200;8.674;2022-07-06T21:11:42;17.20;90.00
45323;DHT22;31382;50.200;8.674;2022-07-06T21:16:44;17.20;90.40
45323;DHT22;31382;50.200;8.674;2022-07-06T21:21:46;17.10;90.70
45323;DHT22;31382;50.200;8.674;2022-07-06T21:26:48;17.10;91.00
45323;DHT22;31382;50.200;8.674;2022-07-06T21:31:50;16.90;91.60
45323;DHT22;31382;50.200;8.674;2022-07-06T21:36:52;16.90;91.80
45323;DHT22;31382;50.200;8.674;2022-07-06T21:41:56;17.00;91.90
45323;DHT22;31382;50.200;8.674;2022-07-06T21:46:58;17.10;91.80
45323;DHT22;31382;50.200;8.674;2022-07-06T21:52:01;17.10;91.70
45323;DHT22;31382;50.200;8.674;2022-07-06T21:57:07;17.20;91.80
45323;DHT22;31382;50.200;8.674;2022-07-06T22:02:12;17.30;91.90
45323;DHT22;31382;50.200;8.674;2022-07-06T22:07:14;17.30;91.90
45323;DHT22;31382;50.200;8.674;2022-07-06T22:12:15;17.40;91.90
45323;DHT22;31382;50.200;8.674;2022-07-06T22:17:17;17.50;92.10
45323;DHT22;31382;50.200;8.674;2022-07-06T22:22:19;17.50;92.10
45323;DHT22;31382;50.200;8.674;2022-07-06T22:27:21;17.60;92.30
45323;DHT22;31382;50.200;8.674;2022-07-06T22:32:23;17.60;92.50
45323;DHT22;31382;50.200;8.674;2022-07-06T22:37:25;17.70;92.60
45323;DHT22;31382;50.200;8.674;2022-07-06T22:42:26;17.60;92.20
45323;DHT22;31382;50.200;8.674;2022-07-06T22:47:28;17.60;92.20
45323;DHT22;31382;50.200;8.674;2022-07-06T22:52:30;17.70;92.10
45323;DHT22;31382;50.200;8.674;2022-07-06T22:57:34;17.70;92.20
45323;DHT22;31382;50.200;8.674;2022-07-06T23:02:36;17.80;92.80
45323;DHT22;31382;50.200;8.674;2022-07-06T23:07:38;17.80;94.00
45323;DHT22;31382;50.200;8.674;2022-07-06T23:12:40;17.90;93.90
45323;DHT22;31382;50.200;8.674;2022-07-06T23:17:43;17.90;94.20
45323;DHT22;31382;50.200;8.674;2022-07-06T23:22:45;18.00;94.60
45323;DHT22;31382;50.200;8.674;2022-07-06T23:27:47;18.00;94.20
45323;DHT22;31382;50.200;8.674;2022-07-06T23:32:49;18.10;94.20
45323;DHT22;31382;50.200;8.674;2022-07-06T23:37:51;18.00;94.60
45323;DHT22;31382;50.200;8.674;2022-07-06T23:42:53;18.00;94.10
45323;DHT22;31382;50.200;8.674;2022-07-06T23:47:55;17.90;93.60
45323;DHT22;31382;50.200;8.674;2022-07-06T23:52:57;18.00;93.50
45323;DHT22;31382;50.200;8.674;2022-07-06T23:57:59;18.10;93.40
